createdAt,value
2022-10-21T00:00:51.949Z,100.00
2022-10-21T00:03:20.395Z,100.00
2022-10-21T00:05:49.131Z,100.00
2022-10-21T00:08:18.038Z,100.00
2022-10-21T00:10:45.985Z,100.00
2022-10-21T00:13:13.887Z,100.00
2022-10-21T00:15:41.785Z,100.00
2022-10-21T00:18:10.995Z,100.00
2022-10-21T00:20:41.504Z,100.00
2022-10-21T00:23:09.338Z,100.00
2022-10-21T00:25:39.467Z,100.00
2022-10-21T00:28:07.334Z,100.00
2022-10-21T00:30:35.201Z,100.00
2022-10-21T00:33:03.446Z,100.00
2022-10-21T00:35:35.397Z,100.00
2022-10-21T00:38:03.265Z,100.00
2022-10-21T00:40:31.366Z,100.00
2022-10-21T00:42:59.198Z,100.00
2022-10-21T00:45:29.589Z,100.00
2022-10-21T00:48:03.814Z,100.00
2022-10-21T00:50:41.739Z,100.00
2022-10-21T00:53:14.155Z,100.00
2022-10-21T00:55:46.849Z,100.00
2022-10-21T00:58:15.518Z,100.00
2022-10-21T01:00:43.475Z,100.00
2022-10-21T01:03:11.538Z,100.00
2022-10-21T01:05:42.399Z,100.00
2022-10-21T01:08:10.363Z,100.00
2022-10-21T01:10:39.153Z,100.00
2022-10-21T01:13:22.511Z,100.00
2022-10-21T01:15:57.770Z,100.00
2022-10-21T01:18:31.628Z,100.00
2022-10-21T01:21:20.912Z,100.00
2022-10-21T01:24:15.842Z,100.00
2022-10-21T01:27:06.755Z,100.00
2022-10-21T01:30:07.886Z,100.00
2022-10-21T01:33:01.138Z,100.00
2022-10-21T01:35:36.483Z,100.00
2022-10-21T01:38:10.424Z,100.00
2022-10-21T01:40:46.680Z,100.00
2022-10-21T01:43:21.163Z,100.00
2022-10-21T01:45:53.160Z,100.00
2022-10-21T01:48:25.664Z,100.00
2022-10-21T01:50:58.512Z,100.00
2022-10-21T01:53:30.938Z,100.00
2022-10-21T01:56:00.923Z,100.00
2022-10-21T01:58:32.615Z,100.00
2022-10-21T02:01:04.160Z,100.00
2022-10-21T02:03:37.405Z,100.00
2022-10-21T02:06:06.527Z,100.00
2022-10-21T02:08:35.459Z,100.00
2022-10-21T02:11:13.785Z,100.00
2022-10-21T02:13:46.974Z,100.00
2022-10-21T02:16:19.576Z,100.00
2022-10-21T02:18:48.992Z,100.00
2022-10-21T02:21:20.077Z,100.00
2022-10-21T02:23:54.457Z,100.00
2022-10-21T02:26:23.209Z,100.00
2022-10-21T02:28:53.709Z,100.00
2022-10-21T02:31:36.668Z,100.00
2022-10-21T02:34:16.046Z,100.00
2022-10-21T02:36:51.075Z,100.00
2022-10-21T02:39:26.073Z,100.00
2022-10-21T02:41:57.179Z,100.00
2022-10-21T02:44:25.336Z,100.00
2022-10-21T02:46:53.696Z,100.00
2022-10-21T02:49:22.896Z,100.00
2022-10-21T02:51:50.780Z,100.00
2022-10-21T02:54:18.651Z,100.00
2022-10-21T02:56:46.476Z,100.00
2022-10-21T02:59:14.442Z,100.00
2022-10-21T03:01:42.296Z,100.00
2022-10-21T03:04:10.139Z,100.00
2022-10-21T03:06:39.341Z,100.00
2022-10-21T03:09:07.197Z,100.00
2022-10-21T03:11:35.105Z,100.00
2022-10-21T03:14:02.991Z,100.00
2022-10-21T03:16:30.998Z,100.00
2022-10-21T03:18:58.851Z,100.00
2022-10-21T03:21:26.719Z,100.00
2022-10-21T03:23:55.916Z,100.00
2022-10-21T03:26:23.772Z,100.00
2022-10-21T03:28:51.661Z,100.00
2022-10-21T03:31:19.535Z,100.00
2022-10-21T03:33:47.391Z,100.00
2022-10-21T03:36:15.281Z,100.00
2022-10-21T03:38:43.153Z,100.00
2022-10-21T03:41:12.396Z,100.00
2022-10-21T03:43:40.236Z,100.00
2022-10-21T03:46:08.072Z,100.00
2022-10-21T03:48:35.966Z,100.00
2022-10-21T03:51:03.860Z,100.00
2022-10-21T03:53:42.865Z,100.00
2022-10-21T03:56:12.788Z,100.00
2022-10-21T03:58:40.742Z,100.00
2022-10-21T04:01:12.081Z,100.00
2022-10-21T04:03:41.189Z,100.00
2022-10-21T04:06:09.351Z,100.00
2022-10-21T04:08:37.489Z,100.00
2022-10-21T04:11:06.572Z,100.00
2022-10-21T04:13:35.803Z,100.00
2022-10-21T04:16:05.817Z,100.00
2022-10-21T04:18:34.433Z,100.00
2022-10-21T04:21:02.365Z,100.00
2022-10-21T04:23:30.200Z,100.00
2022-10-21T04:25:58.086Z,100.00
2022-10-21T04:28:26.019Z,100.00
2022-10-21T04:30:55.410Z,100.00
2022-10-21T04:33:23.333Z,100.00
2022-10-21T04:35:51.200Z,100.00
2022-10-21T04:38:19.111Z,100.00
2022-10-21T04:40:47.208Z,100.00
2022-10-21T04:43:15.046Z,100.00
2022-10-21T04:45:42.898Z,100.00
2022-10-21T04:48:13.672Z,100.00
2022-10-21T04:50:41.594Z,100.00
2022-10-21T04:53:09.451Z,100.00
2022-10-21T04:55:40.085Z,100.00
2022-10-21T04:58:08.007Z,100.00
2022-10-21T05:00:36.207Z,100.00
2022-10-21T05:03:05.009Z,100.00
2022-10-21T05:05:34.248Z,100.00
2022-10-21T05:08:02.159Z,100.00
2022-10-21T05:10:30.463Z,100.00
2022-10-21T05:12:58.659Z,100.00
2022-10-21T05:15:27.204Z,100.00
2022-10-21T05:17:55.566Z,100.00
2022-10-21T05:20:23.402Z,100.00
2022-10-21T05:22:53.564Z,100.00
2022-10-21T05:25:23.027Z,100.00
2022-10-21T05:27:51.892Z,100.00
2022-10-21T05:30:19.850Z,100.00
2022-10-21T05:32:47.683Z,100.00
2022-10-21T05:35:15.545Z,100.00
2022-10-21T05:37:43.429Z,100.00
2022-10-21T05:40:13.664Z,100.00
2022-10-21T05:42:41.599Z,100.00
2022-10-21T05:45:10.965Z,100.00
2022-10-21T05:47:39.837Z,100.00
2022-10-21T05:50:09.073Z,97.67
2022-10-21T05:52:37.106Z,96.92
2022-10-21T05:55:05.628Z,95.06
2022-10-21T05:57:34.901Z,92.51
2022-10-21T06:00:05.186Z,90.85
2022-10-21T06:02:33.159Z,89.16
2022-10-21T06:05:01.011Z,87.01
2022-10-21T06:07:28.897Z,86.08
2022-10-21T06:09:56.767Z,84.25
2022-10-21T06:12:24.625Z,83.18
2022-10-21T06:14:53.844Z,81.74
2022-10-21T06:17:21.696Z,82.02
2022-10-21T06:19:50.975Z,80.24
2022-10-21T06:22:19.151Z,79.35
2022-10-21T06:24:47.346Z,81.99
2022-10-21T06:27:15.300Z,82.68
2022-10-21T06:29:43.208Z,82.04
2022-10-21T06:32:13.075Z,82.67
2022-10-21T06:34:41.029Z,81.67
2022-10-21T06:37:08.948Z,80.66
2022-10-21T06:39:36.806Z,80.44
2022-10-21T06:42:04.840Z,78.06
2022-10-21T06:44:32.770Z,77.73
2022-10-21T06:47:00.620Z,77.88
2022-10-21T06:49:29.805Z,78.48
2022-10-21T06:51:57.656Z,75.64
2022-10-21T06:54:25.904Z,76.21
2022-10-21T06:56:53.776Z,77.46
2022-10-21T06:59:21.632Z,76.96
2022-10-21T07:01:59.713Z,76.97
2022-10-21T07:04:30.360Z,75.61
2022-10-21T07:06:58.456Z,74.36
2022-10-21T07:09:26.366Z,73.20
2022-10-21T07:11:54.321Z,72.35
2022-10-21T07:14:22.220Z,73.70
2022-10-21T07:16:51.543Z,72.83
2022-10-21T07:19:19.408Z,73.25
2022-10-21T07:21:48.903Z,72.74
2022-10-21T07:24:22.178Z,73.00
2022-10-21T07:26:51.079Z,73.78
2022-10-21T07:29:19.659Z,74.80
2022-10-21T07:31:47.523Z,73.98
2022-10-21T07:34:15.403Z,75.53
2022-10-21T07:36:47.935Z,75.08
2022-10-21T07:39:18.498Z,73.39
2022-10-21T07:41:48.645Z,73.59
2022-10-21T07:44:16.776Z,73.08
2022-10-21T07:46:45.796Z,73.74
2022-10-21T07:49:14.954Z,75.71
2022-10-21T07:51:45.162Z,75.06
2022-10-21T07:54:13.954Z,75.02
2022-10-21T07:56:46.210Z,75.89
2022-10-21T07:59:15.481Z,79.40
2022-10-21T08:01:45.883Z,81.91
2022-10-21T08:04:15.502Z,84.47
2022-10-21T08:06:43.683Z,84.33
2022-10-21T08:09:11.842Z,82.38
2022-10-21T08:11:39.715Z,79.60
2022-10-21T08:14:10.622Z,77.63
2022-10-21T08:16:38.950Z,77.27
2022-10-21T08:19:07.098Z,76.54
2022-10-21T08:21:35.389Z,77.20
2022-10-21T08:24:04.424Z,75.68
2022-10-21T08:26:32.623Z,75.52
2022-10-21T08:29:00.542Z,75.78
2022-10-21T08:31:29.829Z,73.85
2022-10-21T08:33:58.219Z,74.92
2022-10-21T08:36:27.269Z,75.32
2022-10-21T08:38:55.757Z,75.50
2022-10-21T08:41:54.488Z,75.51
2022-10-21T08:44:31.148Z,72.53
2022-10-21T08:47:06.706Z,70.94
2022-10-21T08:49:45.171Z,69.72
2022-10-21T08:52:16.593Z,70.84
2022-10-21T08:54:48.067Z,70.43
2022-10-21T08:57:16.721Z,71.45
2022-10-21T08:59:44.712Z,68.88
2022-10-21T09:02:37.444Z,67.78
2022-10-21T09:05:34.147Z,68.06
2022-10-21T09:08:16.681Z,67.49
2022-10-21T09:10:57.508Z,67.80
2022-10-21T09:13:40.164Z,66.23
2022-10-21T09:16:14.625Z,67.17
2022-10-21T09:19:00.932Z,65.48
2022-10-21T09:21:40.299Z,63.52
2022-10-21T09:24:11.471Z,65.88
2022-10-21T09:26:42.567Z,65.50
2022-10-21T09:29:26.215Z,64.49
2022-10-21T09:32:02.034Z,63.27
2022-10-21T09:34:43.360Z,63.15
2022-10-21T09:37:18.106Z,62.46
2022-10-21T09:39:50.267Z,62.51
2022-10-21T09:42:35.735Z,62.12
2022-10-21T09:45:16.426Z,62.38
2022-10-21T09:47:45.839Z,60.12
2022-10-21T09:50:18.319Z,60.42
2022-10-21T09:52:54.004Z,60.52
2022-10-21T09:55:22.519Z,59.89
2022-10-21T09:57:55.756Z,59.37
2022-10-21T10:00:23.664Z,58.18
2022-10-21T10:02:51.663Z,57.60
2022-10-21T10:05:38.712Z,58.02
2022-10-21T10:08:38.697Z,57.13
2022-10-21T10:11:18.259Z,56.14
2022-10-21T10:13:48.173Z,56.47
2022-10-21T10:16:22.320Z,57.16
2022-10-21T10:18:51.806Z,56.36
2022-10-21T10:21:22.750Z,58.25
2022-10-21T10:23:52.488Z,57.98
2022-10-21T10:26:25.400Z,57.40
2022-10-21T10:28:56.614Z,56.39
2022-10-21T10:31:31.693Z,58.10
2022-10-21T10:34:03.586Z,56.88
2022-10-21T10:36:36.747Z,56.40
2022-10-21T10:39:08.684Z,56.86
2022-10-21T10:41:40.048Z,55.27
2022-10-21T10:44:27.135Z,55.50
2022-10-21T10:46:57.030Z,55.47
2022-10-21T10:49:26.939Z,56.07
2022-10-21T10:52:08.939Z,54.05
2022-10-21T10:54:38.124Z,54.43
2022-10-21T10:57:11.950Z,54.64
2022-10-21T10:59:43.213Z,54.06
2022-10-21T11:02:26.253Z,53.37
2022-10-21T11:05:08.134Z,51.66
2022-10-21T11:07:44.620Z,51.86
2022-10-21T11:10:29.687Z,52.06
2022-10-21T11:12:58.081Z,51.96
2022-10-21T11:15:40.707Z,50.48
2022-10-21T11:18:25.832Z,50.47
2022-10-21T11:21:02.638Z,50.55
2022-10-21T11:23:57.849Z,50.63
2022-10-21T11:26:34.829Z,49.37
2022-10-21T11:29:10.436Z,50.72
2022-10-21T11:32:06.693Z,51.29
2022-10-21T11:34:41.565Z,50.26
2022-10-21T11:37:28.716Z,51.07
2022-10-21T11:40:04.190Z,50.82
2022-10-21T11:42:41.696Z,51.95
2022-10-21T11:45:47.924Z,51.84
2022-10-21T11:48:30.339Z,50.14
2022-10-21T11:51:14.108Z,49.67
2022-10-21T11:53:59.376Z,49.29
2022-10-21T11:56:39.858Z,50.25
2022-10-21T11:59:21.430Z,50.83
2022-10-21T12:01:56.930Z,50.35
2022-10-21T12:04:34.501Z,49.71
2022-10-21T12:07:25.375Z,49.88
2022-10-21T12:09:59.071Z,49.23
2022-10-21T12:12:34.425Z,49.46
2022-10-21T12:15:05.775Z,49.64
2022-10-21T12:20:21.315Z,49.52
2022-10-21T12:22:57.949Z,49.33
2022-10-21T12:25:34.949Z,49.61
2022-10-21T12:28:12.862Z,49.46
2022-10-21T12:30:45.859Z,50.14
2022-10-21T12:33:18.938Z,50.09
2022-10-21T12:35:50.458Z,49.81
2022-10-21T12:38:27.123Z,50.13
2022-10-21T12:41:26.873Z,49.55
2022-10-21T12:44:03.640Z,48.45
2022-10-21T12:46:39.199Z,48.51
2022-10-21T12:49:24.071Z,48.59
2022-10-21T12:51:56.247Z,49.52
2022-10-21T12:54:30.346Z,48.96
2022-10-21T12:57:05.037Z,49.85
2022-10-21T12:59:36.845Z,49.28
2022-10-21T13:02:21.614Z,48.81
2022-10-21T13:04:52.305Z,48.98
2022-10-21T13:07:30.676Z,49.15
2022-10-21T13:10:26.527Z,49.01
2022-10-21T13:13:31.909Z,49.22
2022-10-21T13:16:03.325Z,49.34
2022-10-21T13:18:53.841Z,49.37
2022-10-21T13:21:43.507Z,49.56
2022-10-21T13:24:24.936Z,50.58
2022-10-21T13:26:55.813Z,50.99
2022-10-21T13:29:34.625Z,52.17
2022-10-21T13:32:27.050Z,51.71
2022-10-21T13:35:02.990Z,52.42
2022-10-21T13:37:34.696Z,52.57
2022-10-21T13:40:06.120Z,52.23
2022-10-21T13:42:38.034Z,52.40
2022-10-21T13:45:23.033Z,52.28
2022-10-21T13:48:02.643Z,52.37
2022-10-21T13:50:33.753Z,52.09
2022-10-21T13:53:04.048Z,52.17
2022-10-21T13:55:31.910Z,52.56
2022-10-21T13:57:59.754Z,52.54
2022-10-21T14:00:30.360Z,52.22
2022-10-21T14:03:04.524Z,52.54
2022-10-21T14:05:37.627Z,52.44
2022-10-21T14:08:08.912Z,52.41
2022-10-21T14:10:37.192Z,52.13
2022-10-21T14:13:05.671Z,52.29
2022-10-21T14:15:41.040Z,52.41
2022-10-21T14:18:28.255Z,52.15
2022-10-21T14:20:58.207Z,52.33
2022-10-21T14:23:26.682Z,52.75
2022-10-21T14:25:58.114Z,52.48
2022-10-21T14:28:26.141Z,52.40
2022-10-21T14:30:54.160Z,52.48
2022-10-21T14:33:28.404Z,52.19
2022-10-21T14:36:07.462Z,52.49
2022-10-21T14:38:41.688Z,52.69
2022-10-21T14:41:14.731Z,52.77
2022-10-21T14:43:44.512Z,52.93
2022-10-21T14:46:12.800Z,53.41
2022-10-21T14:48:47.672Z,53.10
2022-10-21T14:51:21.222Z,53.02
2022-10-21T14:53:53.844Z,53.04
2022-10-21T14:56:25.518Z,53.30
2022-10-21T14:58:57.623Z,53.47
2022-10-21T15:01:26.183Z,54.08
2022-10-21T15:03:57.211Z,54.11
2022-10-21T15:06:27.304Z,54.10
2022-10-21T15:09:18.677Z,54.02
2022-10-21T15:11:47.784Z,54.84
2022-10-21T15:14:21.853Z,55.54
2022-10-21T15:16:52.844Z,56.33
2022-10-21T15:19:25.476Z,56.01
2022-10-21T15:21:57.191Z,56.05
2022-10-21T15:24:31.460Z,56.30
2022-10-21T15:27:01.200Z,56.98
2022-10-21T15:29:36.363Z,57.29
2022-10-21T15:32:05.790Z,57.63
2022-10-21T15:34:35.086Z,58.23
2022-10-21T15:37:03.171Z,59.32
2022-10-21T15:39:31.303Z,59.90
2022-10-21T15:41:59.978Z,60.24
2022-10-21T15:44:29.270Z,60.53
2022-10-21T15:47:00.738Z,60.41
2022-10-21T15:49:34.145Z,60.95
2022-10-21T15:52:03.392Z,60.71
2022-10-21T15:54:31.287Z,61.74
2022-10-21T15:56:59.987Z,62.98
2022-10-21T15:59:30.205Z,63.84
2022-10-21T16:01:59.137Z,64.51
2022-10-21T16:04:27.919Z,65.71
2022-10-21T16:06:56.421Z,66.13
2022-10-21T16:09:27.712Z,66.79
2022-10-21T16:12:00.077Z,67.67
2022-10-21T16:14:30.028Z,69.02
2022-10-21T16:16:58.761Z,69.56
2022-10-21T16:19:26.633Z,67.69
2022-10-21T16:21:54.820Z,69.83
2022-10-21T16:24:22.668Z,71.04
2022-10-21T16:26:51.848Z,70.70
2022-10-21T16:29:22.442Z,70.76
2022-10-21T16:31:51.023Z,71.88
2022-10-21T16:34:18.966Z,72.17
2022-10-21T16:36:46.875Z,73.46
2022-10-21T16:39:17.942Z,74.81
2022-10-21T16:41:46.126Z,75.06
2022-10-21T16:44:15.459Z,75.07
2022-10-21T16:46:50.197Z,75.64
2022-10-21T16:49:22.170Z,77.08
2022-10-21T16:51:51.955Z,78.46
2022-10-21T16:54:20.775Z,78.12
2022-10-21T16:56:52.062Z,79.25
2022-10-21T16:59:24.282Z,79.49
2022-10-21T17:01:52.331Z,79.54
2022-10-21T17:04:20.210Z,80.61
2022-10-21T17:06:48.039Z,81.38
2022-10-21T17:09:16.067Z,82.17
2022-10-21T17:11:44.383Z,82.41
2022-10-21T17:14:16.409Z,82.95
2022-10-21T17:16:46.416Z,83.50
2022-10-21T17:19:14.987Z,83.94
2022-10-21T17:21:43.724Z,84.08
2022-10-21T17:24:16.320Z,84.50
2022-10-21T17:26:44.462Z,85.20
2022-10-21T17:29:12.836Z,85.80
2022-10-21T17:31:42.155Z,86.46
2022-10-21T17:34:24.048Z,88.07
2022-10-21T17:36:53.085Z,88.49
2022-10-21T17:39:21.004Z,88.48
2022-10-21T17:41:48.973Z,89.43
2022-10-21T17:44:17.455Z,90.03
2022-10-21T17:46:47.448Z,90.18
2022-10-21T17:49:16.947Z,91.00
2022-10-21T17:51:44.839Z,91.08
2022-10-21T17:54:12.667Z,91.93
2022-10-21T17:56:41.705Z,92.63
2022-10-21T17:59:09.675Z,92.53
2022-10-21T18:01:37.634Z,93.57
2022-10-21T18:04:05.818Z,94.23
2022-10-21T18:06:35.044Z,94.53
2022-10-21T18:09:03.836Z,94.41
2022-10-21T18:11:32.219Z,94.50
2022-10-21T18:14:00.073Z,94.35
2022-10-21T18:16:27.926Z,94.83
2022-10-21T18:18:57.430Z,94.73
2022-10-21T18:21:28.202Z,95.25
2022-10-21T18:23:57.827Z,95.75
2022-10-21T18:26:27.587Z,95.86
2022-10-21T18:28:58.078Z,96.06
2022-10-21T18:31:29.891Z,96.10
2022-10-21T18:33:59.356Z,96.13
2022-10-21T18:36:27.682Z,96.54
2022-10-21T18:38:58.235Z,96.73
2022-10-21T18:41:26.398Z,96.97
2022-10-21T18:43:55.803Z,96.92
2022-10-21T18:46:24.230Z,97.02
2022-10-21T18:48:52.211Z,97.93
2022-10-21T18:51:21.308Z,98.30
2022-10-21T18:53:52.751Z,98.28
2022-10-21T18:56:23.872Z,98.83
2022-10-21T18:58:52.528Z,98.63
2022-10-21T19:01:22.652Z,99.18
2022-10-21T19:03:53.963Z,99.38
2022-10-21T19:06:36.011Z,99.42
2022-10-21T19:09:08.381Z,100.00
2022-10-21T19:11:37.724Z,100.00
2022-10-21T19:14:08.416Z,100.00
2022-10-21T19:16:39.676Z,100.00
2022-10-21T19:19:08.171Z,100.00
2022-10-21T19:21:36.263Z,100.00
2022-10-21T19:24:04.369Z,100.00
2022-10-21T19:26:33.376Z,100.00
2022-10-21T19:29:03.951Z,100.00
2022-10-21T19:31:36.013Z,100.00
2022-10-21T19:34:06.469Z,100.00
2022-10-21T19:36:34.887Z,100.00
2022-10-21T19:39:02.947Z,100.00
2022-10-21T19:41:30.991Z,100.00
2022-10-21T19:43:59.439Z,100.00
2022-10-21T19:46:30.732Z,100.00
2022-10-21T19:48:59.120Z,100.00
2022-10-21T19:51:27.271Z,100.00
2022-10-21T19:53:56.043Z,100.00
2022-10-21T19:56:29.693Z,100.00
2022-10-21T19:59:02.631Z,100.00
2022-10-21T20:01:33.444Z,100.00
2022-10-21T20:04:02.467Z,100.00
2022-10-21T20:06:32.023Z,100.00
2022-10-21T20:09:02.342Z,100.00
2022-10-21T20:11:30.819Z,100.00
2022-10-21T20:13:59.080Z,100.00
2022-10-21T20:16:28.630Z,100.00
2022-10-21T20:18:58.875Z,100.00
2022-10-21T20:21:27.624Z,100.00
2022-10-21T20:23:58.077Z,100.00
2022-10-21T20:26:26.613Z,100.00
2022-10-21T20:28:54.535Z,100.00
2022-10-21T20:31:22.619Z,100.00
2022-10-21T20:33:51.988Z,100.00
2022-10-21T20:36:24.406Z,100.00
2022-10-21T20:38:54.818Z,100.00
2022-10-21T20:41:25.971Z,100.00
2022-10-21T20:43:55.392Z,100.00
2022-10-21T20:46:25.134Z,100.00
2022-10-21T20:48:54.723Z,100.00
2022-10-21T20:51:26.144Z,100.00
2022-10-21T20:53:55.613Z,100.00
2022-10-21T20:56:26.373Z,100.00
2022-10-21T20:58:54.245Z,100.00
2022-10-21T21:01:26.111Z,100.00
2022-10-21T21:03:56.359Z,100.00
2022-10-21T21:06:26.025Z,100.00
2022-10-21T21:09:15.102Z,100.00
2022-10-21T21:11:42.023Z,100.00
2022-10-21T21:14:09.897Z,100.00
2022-10-21T21:16:37.717Z,100.00
2022-10-21T21:19:08.660Z,100.00
2022-10-21T21:21:37.937Z,100.00
2022-10-21T21:24:06.327Z,100.00
2022-10-21T21:26:36.519Z,100.00
2022-10-21T21:29:06.189Z,100.00
2022-10-21T21:31:36.077Z,100.00
2022-10-21T21:34:03.974Z,100.00
2022-10-21T21:36:31.877Z,100.00
2022-10-21T21:39:01.214Z,100.00
2022-10-21T21:41:29.408Z,100.00
2022-10-21T21:43:58.337Z,100.00
2022-10-21T21:46:27.227Z,100.00
2022-10-21T21:48:59.503Z,100.00
2022-10-21T21:51:30.750Z,100.00
2022-10-21T21:53:59.559Z,100.00
2022-10-21T21:56:28.959Z,100.00
2022-10-21T21:58:58.063Z,100.00
2022-10-21T22:01:28.686Z,100.00
2022-10-21T22:03:57.352Z,100.00
2022-10-21T22:06:28.210Z,100.00
2022-10-21T22:08:56.790Z,100.00
2022-10-21T22:11:26.589Z,100.00
2022-10-21T22:13:56.277Z,100.00
2022-10-21T22:16:27.299Z,100.00
2022-10-21T22:18:55.594Z,100.00
2022-10-21T22:21:25.242Z,100.00
2022-10-21T22:23:53.448Z,100.00
2022-10-21T22:26:23.162Z,100.00
2022-10-21T22:28:51.049Z,100.00
2022-10-21T22:31:25.746Z,100.00
2022-10-21T22:33:57.251Z,100.00
2022-10-21T22:36:25.097Z,100.00
2022-10-21T22:38:52.911Z,100.00
2022-10-21T22:41:20.759Z,100.00
2022-10-21T22:43:48.597Z,100.00
2022-10-21T22:49:06.416Z,100.00
2022-10-21T22:51:34.528Z,100.00
2022-10-21T22:54:02.397Z,100.00
2022-10-21T22:56:30.280Z,100.00
2022-10-21T22:58:58.343Z,100.00
2022-10-21T23:01:30.073Z,100.00
2022-10-21T23:03:58.343Z,100.00
2022-10-21T23:06:27.555Z,100.00
2022-10-21T23:08:55.529Z,100.00
2022-10-21T23:11:23.436Z,100.00
2022-10-21T23:14:02.496Z,100.00
2022-10-21T23:16:31.807Z,100.00
2022-10-21T23:18:59.825Z,100.00
2022-10-21T23:21:29.340Z,100.00
2022-10-21T23:23:57.411Z,100.00
2022-10-21T23:26:25.474Z,100.00
2022-10-21T23:28:53.343Z,100.00
2022-10-21T23:31:21.503Z,100.00
2022-10-21T23:33:49.804Z,100.00
2022-10-21T23:36:17.714Z,100.00
2022-10-21T23:38:46.960Z,100.00
2022-10-21T23:41:15.224Z,100.00
2022-10-21T23:43:43.068Z,100.00
2022-10-21T23:46:10.947Z,100.00
2022-10-21T23:48:38.976Z,100.00
2022-10-21T23:51:07.091Z,100.00
2022-10-21T23:53:34.936Z,100.00
2022-10-21T23:56:04.663Z,100.00
2022-10-21T23:58:32.968Z,100.00
